sensor_id;sensor_type;location;lat;lon;timestamp;pressure;altitude;pressure_sealevel;temperature;humidity
10460;BME280;54412;51.206;6.888;2023-04-08T00:02:10;101425.88;;;10.63;90.68
10460;BME280;54412;51.206;6.888;2023-04-08T00:04:36;101433.34;;;10.50;90.71
10460;BME280;54412;51.206;6.888;2023-04-08T00:07:01;101436.78;;;10.52;91.08
10460;BME280;54412;51.206;6.888;2023-04-08T00:09:27;101431.91;;;10.67;91.07
10460;BME280;54412;51.206;6.888;2023-04-08T00:11:52;101436.44;;;10.85;89.07
10460;BME280;54412;51.206;6.888;2023-04-08T00:14:18;101436.84;;;10.74;89.51
10460;BME280;54412;51.206;6.888;2023-04-08T00:16:44;101435.09;;;10.51;90.85
10460;BME280;54412;51.206;6.888;2023-04-08T00:19:09;101435.59;;;10.38;91.58
10460;BME280;54412;51.206;6.888;2023-04-08T00:21:35;101436.44;;;10.38;92.25
10460;BME280;54412;51.206;6.888;2023-04-08T00:24:01;101435.16;;;10.50;91.72
10460;BME280;54412;51.206;6.888;2023-04-08T00:26:27;101435.22;;;10.48;91.22
10460;BME280;54412;51.206;6.888;2023-04-08T00:28:52;101432.34;;;10.54;91.51
10460;BME280;54412;51.206;6.888;2023-04-08T00:31:18;101427.75;;;10.60;91.33
10460;BME280;54412;51.206;6.888;2023-04-08T00:33:44;101437.84;;;10.48;91.24
10460;BME280;54412;51.206;6.888;2023-04-08T00:36:10;101437.50;;;10.58;91.32
10460;BME280;54412;51.206;6.888;2023-04-08T00:38:35;101441.13;;;10.55;91.09
10460;BME280;54412;51.206;6.888;2023-04-08T00:41:01;101442.47;;;10.42;91.45
10460;BME280;54412;51.206;6.888;2023-04-08T00:43:27;101444.16;;;10.44;91.40
10460;BME280;54412;51.206;6.888;2023-04-08T00:45:53;101437.53;;;10.56;91.58
10460;BME280;54412;51.206;6.888;2023-04-08T00:48:18;101430.78;;;10.72;90.15
10460;BME280;54412;51.206;6.888;2023-04-08T00:50:44;101433.13;;;10.57;90.61
10460;BME280;54412;51.206;6.888;2023-04-08T00:53:14;101436.72;;;10.56;91.07
10460;BME280;54412;51.206;6.888;2023-04-08T00:55:42;101447.53;;;10.48;91.50
10460;BME280;54412;51.206;6.888;2023-04-08T00:58:07;101443.34;;;10.66;90.48
10460;BME280;54412;51.206;6.888;2023-04-08T01:00:36;101446.13;;;10.63;90.60
10460;BME280;54412;51.206;6.888;2023-04-08T01:03:49;101447.41;;;10.51;91.19
10460;BME280;54412;51.206;6.888;2023-04-08T01:09:34;101448.56;;;10.67;91.13
10460;BME280;54412;51.206;6.888;2023-04-08T01:12:07;101451.94;;;10.47;91.48
10460;BME280;54412;51.206;6.888;2023-04-08T01:14:39;101453.88;;;10.42;92.25
10460;BME280;54412;51.206;6.888;2023-04-08T01:17:07;101450.47;;;10.64;91.36
10460;BME280;54412;51.206;6.888;2023-04-08T01:19:38;101455.16;;;10.56;91.08
10460;BME280;54412;51.206;6.888;2023-04-08T01:25:15;101449.78;;;10.59;91.45
10460;BME280;54412;51.206;6.888;2023-04-08T01:27:42;101452.34;;;10.60;90.32
10460;BME280;54412;51.206;6.888;2023-04-08T01:30:09;101460.44;;;10.79;89.56
10460;BME280;54412;51.206;6.888;2023-04-08T01:32:37;101466.06;;;10.70;89.77
10460;BME280;54412;51.206;6.888;2023-04-08T01:35:05;101463.09;;;10.56;91.20
10460;BME280;54412;51.206;6.888;2023-04-08T01:37:32;101458.63;;;10.58;91.31
10460;BME280;54412;51.206;6.888;2023-04-08T01:40:01;101461.53;;;10.50;91.71
10460;BME280;54412;51.206;6.888;2023-04-08T01:42:29;101456.81;;;10.58;90.81
10460;BME280;54412;51.206;6.888;2023-04-08T01:44:59;101455.78;;;10.62;90.71
10460;BME280;54412;51.206;6.888;2023-04-08T01:47:28;101462.00;;;10.61;90.54
10460;BME280;54412;51.206;6.888;2023-04-08T01:49:54;101459.31;;;10.63;90.57
10460;BME280;54412;51.206;6.888;2023-04-08T01:52:22;101465.00;;;10.50;91.30
10460;BME280;54412;51.206;6.888;2023-04-08T01:54:49;101458.94;;;10.48;91.77
10460;BME280;54412;51.206;6.888;2023-04-08T01:57:23;101458.78;;;10.53;91.61
10460;BME280;54412;51.206;6.888;2023-04-08T01:59:52;101457.09;;;10.50;91.82
10460;BME280;54412;51.206;6.888;2023-04-08T02:02:21;101463.19;;;10.52;91.17
10460;BME280;54412;51.206;6.888;2023-04-08T02:04:49;101459.50;;;10.33;92.23
10460;BME280;54412;51.206;6.888;2023-04-08T02:07:14;101458.84;;;10.51;91.82
10460;BME280;54412;51.206;6.888;2023-04-08T02:09:41;101459.28;;;10.39;91.33
10460;BME280;54412;51.206;6.888;2023-04-08T02:12:07;101468.00;;;10.41;91.58
10460;BME280;54412;51.206;6.888;2023-04-08T02:14:32;101458.03;;;10.49;91.58
10460;BME280;54412;51.206;6.888;2023-04-08T02:17:11;101460.94;;;10.42;91.07
10460;BME280;54412;51.206;6.888;2023-04-08T02:19:52;101460.94;;;10.42;91.31
10460;BME280;54412;51.206;6.888;2023-04-08T02:22:30;101461.19;;;10.36;91.85
10460;BME280;54412;51.206;6.888;2023-04-08T02:25:02;101465.94;;;10.49;91.18
10460;BME280;54412;51.206;6.888;2023-04-08T02:27:32;101465.84;;;10.28;92.01
10460;BME280;54412;51.206;6.888;2023-04-08T02:30:01;101458.63;;;10.33;92.18
10460;BME280;54412;51.206;6.888;2023-04-08T02:32:30;101463.19;;;10.52;91.20
10460;BME280;54412;51.206;6.888;2023-04-08T02:34:59;101464.38;;;10.44;91.45
10460;BME280;54412;51.206;6.888;2023-04-08T02:37:30;101460.94;;;10.42;91.47
10460;BME280;54412;51.206;6.888;2023-04-08T02:39:57;101461.06;;;10.39;91.45
10460;BME280;54412;51.206;6.888;2023-04-08T02:42:23;101460.88;;;10.43;91.36
10460;BME280;54412;51.206;6.888;2023-04-08T02:44:48;101463.47;;;10.45;91.63
10460;BME280;54412;51.206;6.888;2023-04-08T02:47:14;101472.22;;;10.45;91.39
10460;BME280;54412;51.206;6.888;2023-04-08T02:49:40;101469.66;;;10.44;90.70
10460;BME280;54412;51.206;6.888;2023-04-08T02:52:05;101463.50;;;10.43;91.17
10460;BME280;54412;51.206;6.888;2023-04-08T02:54:31;101472.09;;;10.50;90.89
10460;BME280;54412;51.206;6.888;2023-04-08T02:56:57;101471.34;;;10.46;91.05
10460;BME280;54412;51.206;6.888;2023-04-08T02:59:22;101476.53;;;10.48;91.36
10460;BME280;54412;51.206;6.888;2023-04-08T03:01:48;101475.34;;;10.57;90.29
10460;BME280;54412;51.206;6.888;2023-04-08T03:04:14;101472.91;;;10.50;90.86
10460;BME280;54412;51.206;6.888;2023-04-08T03:06:40;101474.09;;;10.67;90.62
10460;BME280;54412;51.206;6.888;2023-04-08T03:09:05;101480.84;;;10.50;90.29
10460;BME280;54412;51.206;6.888;2023-04-08T03:11:31;101477.41;;;10.48;90.75
10460;BME280;54412;51.206;6.888;2023-04-08T03:13:57;101486.34;;;10.44;91.00
10460;BME280;54412;51.206;6.888;2023-04-08T03:16:23;101484.47;;;10.48;91.40
10460;BME280;54412;51.206;6.888;2023-04-08T03:18:49;101487.09;;;10.48;90.73
10460;BME280;54412;51.206;6.888;2023-04-08T03:21:18;101484.03;;;10.35;91.61
10460;BME280;54412;51.206;6.888;2023-04-08T03:23:44;101481.06;;;10.44;91.75
10460;BME280;54412;51.206;6.888;2023-04-08T03:26:10;101485.03;;;10.56;90.54
10460;BME280;54412;51.206;6.888;2023-04-08T03:28:36;101478.16;;;10.52;90.95
10460;BME280;54412;51.206;6.888;2023-04-08T03:31:03;101490.97;;;10.38;91.68
10460;BME280;54412;51.206;6.888;2023-04-08T03:33:29;101484.03;;;10.35;91.88
10460;BME280;54412;51.206;6.888;2023-04-08T03:35:55;101480.16;;;10.45;91.74
10460;BME280;54412;51.206;6.888;2023-04-08T03:38:20;101487.03;;;10.49;91.21
10460;BME280;54412;51.206;6.888;2023-04-08T03:40:46;101484.53;;;10.46;91.26
10460;BME280;54412;51.206;6.888;2023-04-08T03:43:13;101486.81;;;10.56;90.85
10460;BME280;54412;51.206;6.888;2023-04-08T03:45:39;101491.63;;;10.44;91.34
10460;BME280;54412;51.206;6.888;2023-04-08T03:48:05;101483.16;;;10.35;91.26
10460;BME280;54412;51.206;6.888;2023-04-08T03:50:31;101485.81;;;10.35;91.84
10460;BME280;54412;51.206;6.888;2023-04-08T03:52:56;101486.94;;;10.28;91.03
10460;BME280;54412;51.206;6.888;2023-04-08T03:55:22;101483.59;;;10.23;90.50
10460;BME280;54412;51.206;6.888;2023-04-08T03:57:48;101486.88;;;10.29;90.56
10460;BME280;54412;51.206;6.888;2023-04-08T04:00:14;101485.69;;;10.13;90.14
10460;BME280;54412;51.206;6.888;2023-04-08T04:02:39;101485.22;;;10.27;89.98
10460;BME280;54412;51.206;6.888;2023-04-08T04:05:06;101488.81;;;10.24;89.03
10460;BME280;54412;51.206;6.888;2023-04-08T04:07:31;101482.94;;;10.16;89.59
10460;BME280;54412;51.206;6.888;2023-04-08T04:09:57;101486.56;;;10.14;89.12
10460;BME280;54412;51.206;6.888;2023-04-08T04:12:23;101486.22;;;9.97;89.85
10460;BME280;54412;51.206;6.888;2023-04-08T04:14:48;101491.78;;;9.89;89.85
10460;BME280;54412;51.206;6.888;2023-04-08T04:17:14;101497.06;;;9.88;89.53
10460;BME280;54412;51.206;6.888;2023-04-08T04:19:40;101495.63;;;10.05;88.77
10460;BME280;54412;51.206;6.888;2023-04-08T04:22:06;101506.56;;;9.93;88.82
10460;BME280;54412;51.206;6.888;2023-04-08T04:24:32;101501.84;;;10.03;87.92
10460;BME280;54412;51.206;6.888;2023-04-08T04:26:58;101511.88;;;9.92;88.33
10460;BME280;54412;51.206;6.888;2023-04-08T04:29:23;101506.66;;;9.90;88.54
10460;BME280;54412;51.206;6.888;2023-04-08T04:31:49;101504.97;;;9.88;89.16
10460;BME280;54412;51.206;6.888;2023-04-08T04:34:15;101514.22;;;9.75;88.99
10460;BME280;54412;51.206;6.888;2023-04-08T04:36:42;101525.41;;;9.81;89.08
10460;BME280;54412;51.206;6.888;2023-04-08T04:39:08;101524.34;;;9.87;88.84
10460;BME280;54412;51.206;6.888;2023-04-08T04:41:33;101521.06;;;9.80;88.42
10460;BME280;54412;51.206;6.888;2023-04-08T04:44:03;101529.28;;;9.71;88.76
10460;BME280;54412;51.206;6.888;2023-04-08T04:46:29;101531.81;;;9.74;89.15
10460;BME280;54412;51.206;6.888;2023-04-08T04:48:55;101528.69;;;9.89;88.99
10460;BME280;54412;51.206;6.888;2023-04-08T04:51:21;101524.09;;;9.94;89.07
10460;BME280;54412;51.206;6.888;2023-04-08T04:53:46;101523.59;;;9.83;88.88
10460;BME280;54412;51.206;6.888;2023-04-08T04:56:13;101532.22;;;9.88;89.15
10460;BME280;54412;51.206;6.888;2023-04-08T04:58:39;101527.25;;;9.79;89.17
10460;BME280;54412;51.206;6.888;2023-04-08T05:01:04;101530.94;;;9.74;89.25
10460;BME280;54412;51.206;6.888;2023-04-08T05:03:30;101530.72;;;10.06;88.53
10460;BME280;54412;51.206;6.888;2023-04-08T05:05:56;101527.19;;;10.07;87.59
10460;BME280;54412;51.206;6.888;2023-04-08T05:08:22;101524.00;;;9.97;87.89
10460;BME280;54412;51.206;6.888;2023-04-08T05:10:48;101534.91;;;9.87;88.03
10460;BME280;54412;51.206;6.888;2023-04-08T05:13:17;101530.13;;;9.98;87.28
10460;BME280;54412;51.206;6.888;2023-04-08T05:15:43;101526.38;;;9.79;87.43
10460;BME280;54412;51.206;6.888;2023-04-08T05:18:10;101535.59;;;9.66;88.08
10460;BME280;54412;51.206;6.888;2023-04-08T05:20:36;101541.81;;;9.63;87.92
10460;BME280;54412;51.206;6.888;2023-04-08T05:23:01;101537.50;;;9.61;88.02
10460;BME280;54412;51.206;6.888;2023-04-08T05:25:29;101541.91;;;9.60;87.18
10460;BME280;54412;51.206;6.888;2023-04-08T05:27:55;101545.38;;;9.62;87.46
10460;BME280;54412;51.206;6.888;2023-04-08T05:30:21;101560.59;;;9.80;86.91
10460;BME280;54412;51.206;6.888;2023-04-08T05:32:46;101556.72;;;9.64;86.80
10460;BME280;54412;51.206;6.888;2023-04-08T05:35:12;101558.81;;;9.81;86.51
10460;BME280;54412;51.206;6.888;2023-04-08T05:37:38;101563.34;;;9.76;86.46
10460;BME280;54412;51.206;6.888;2023-04-08T05:40:04;101557.78;;;9.59;87.05
10460;BME280;54412;51.206;6.888;2023-04-08T05:42:30;101566.44;;;9.62;87.75
10460;BME280;54412;51.206;6.888;2023-04-08T05:44:57;101565.38;;;9.68;87.56
10460;BME280;54412;51.206;6.888;2023-04-08T05:47:22;101568.53;;;9.79;86.97
10460;BME280;54412;51.206;6.888;2023-04-08T05:49:48;101566.91;;;9.75;87.54
10460;BME280;54412;51.206;6.888;2023-04-08T05:52:14;101569.50;;;9.76;87.15
10460;BME280;54412;51.206;6.888;2023-04-08T05:54:43;101567.97;;;9.69;87.59
10460;BME280;54412;51.206;6.888;2023-04-08T05:57:09;101576.09;;;9.89;87.07
10460;BME280;54412;51.206;6.888;2023-04-08T05:59:35;101576.09;;;9.89;87.03
10460;BME280;54412;51.206;6.888;2023-04-08T06:02:01;101583.50;;;10.04;85.72
10460;BME280;54412;51.206;6.888;2023-04-08T06:04:26;101588.53;;;9.86;86.80
10460;BME280;54412;51.206;6.888;2023-04-08T06:06:52;101584.91;;;9.88;87.11
10460;BME280;54412;51.206;6.888;2023-04-08T06:09:17;101585.44;;;9.72;87.87
10460;BME280;54412;51.206;6.888;2023-04-08T06:11:43;101586.84;;;9.83;86.73
10460;BME280;54412;51.206;6.888;2023-04-08T06:14:11;101595.88;;;10.02;86.86
10460;BME280;54412;51.206;6.888;2023-04-08T06:16:37;101588.44;;;10.15;86.28
10460;BME280;54412;51.206;6.888;2023-04-08T06:19:03;101592.72;;;10.19;86.33
10460;BME280;54412;51.206;6.888;2023-04-08T06:21:28;101592.56;;;10.23;86.57
10460;BME280;54412;51.206;6.888;2023-04-08T06:23:54;101596.94;;;10.24;86.15
10460;BME280;54412;51.206;6.888;2023-04-08T06:26:20;101605.59;;;10.28;87.40
10460;BME280;54412;51.206;6.888;2023-04-08T06:28:46;101602.13;;;10.52;86.05
10460;BME280;54412;51.206;6.888;2023-04-08T06:31:11;101602.13;;;10.52;85.72
10460;BME280;54412;51.206;6.888;2023-04-08T06:33:37;101613.19;;;10.37;85.96
10460;BME280;54412;51.206;6.888;2023-04-08T06:36:04;101616.53;;;10.42;86.32
10460;BME280;54412;51.206;6.888;2023-04-08T06:38:30;101610.19;;;10.47;86.01
10460;BME280;54412;51.206;6.888;2023-04-08T06:41:01;101611.50;;;10.36;86.21
10460;BME280;54412;51.206;6.888;2023-04-08T06:43:27;101608.78;;;10.37;86.89
10460;BME280;54412;51.206;6.888;2023-04-08T06:45:53;101616.13;;;10.28;86.77
10460;BME280;54412;51.206;6.888;2023-04-08T06:48:19;101611.13;;;10.20;86.67
10460;BME280;54412;51.206;6.888;2023-04-08T06:50:45;101618.84;;;10.26;86.04
10460;BME280;54412;51.206;6.888;2023-04-08T06:53:10;101630.16;;;10.30;86.78
10460;BME280;54412;51.206;6.888;2023-04-08T06:55:36;101625.53;;;10.10;87.10
10460;BME280;54412;51.206;6.888;2023-04-08T06:58:02;101622.94;;;10.35;85.61
10460;BME280;54412;51.206;6.888;2023-04-08T07:00:27;101623.91;;;10.32;85.72
10460;BME280;54412;51.206;6.888;2023-04-08T07:02:53;101629.94;;;10.36;85.34
10460;BME280;54412;51.206;6.888;2023-04-08T07:05:18;101631.91;;;10.29;85.04
10460;BME280;54412;51.206;6.888;2023-04-08T07:07:44;101624.06;;;10.28;85.99
10460;BME280;54412;51.206;6.888;2023-04-08T07:10:12;101627.66;;;10.51;85.30
10460;BME280;54412;51.206;6.888;2023-04-08T07:12:37;101632.97;;;10.50;85.57
10460;BME280;54412;51.206;6.888;2023-04-08T07:15:03;101634.94;;;10.43;85.83
10460;BME280;54412;51.206;6.888;2023-04-08T07:17:29;101631.91;;;10.56;85.20
10460;BME280;54412;51.206;6.888;2023-04-08T07:19:55;101626.53;;;10.59;85.28
10460;BME280;54412;51.206;6.888;2023-04-08T07:22:21;101637.13;;;10.57;85.05
10460;BME280;54412;51.206;6.888;2023-04-08T07:24:47;101634.91;;;10.45;85.91
10460;BME280;54412;51.206;6.888;2023-04-08T07:27:15;101633.81;;;10.50;86.45
10460;BME280;54412;51.206;6.888;2023-04-08T07:29:41;101634.69;;;10.51;86.60
10460;BME280;54412;51.206;6.888;2023-04-08T07:32:07;101640.59;;;10.59;86.16
10460;BME280;54412;51.206;6.888;2023-04-08T07:34:36;101644.34;;;10.52;86.53
10460;BME280;54412;51.206;6.888;2023-04-08T07:37:02;101656.78;;;10.48;86.71
10460;BME280;54412;51.206;6.888;2023-04-08T07:39:27;101651.53;;;10.47;86.76
10460;BME280;54412;51.206;6.888;2023-04-08T07:41:53;101658.44;;;10.51;86.66
10460;BME280;54412;51.206;6.888;2023-04-08T07:44:19;101656.09;;;10.68;84.96
10460;BME280;54412;51.206;6.888;2023-04-08T07:46:44;101660.41;;;10.71;84.90
10460;BME280;54412;51.206;6.888;2023-04-08T07:49:13;101661.97;;;10.76;85.28
10460;BME280;54412;51.206;6.888;2023-04-08T07:51:39;101666.22;;;10.80;84.61
10460;BME280;54412;51.206;6.888;2023-04-08T07:54:04;101667.19;;;10.78;84.39
10460;BME280;54412;51.206;6.888;2023-04-08T07:56:30;101668.22;;;10.74;85.31
10460;BME280;54412;51.206;6.888;2023-04-08T07:58:56;101667.94;;;10.81;84.47
10460;BME280;54412;51.206;6.888;2023-04-08T08:01:22;101679.59;;;11.00;83.49
10460;BME280;54412;51.206;6.888;2023-04-08T08:03:52;101678.41;;;10.84;84.72
10460;BME280;54412;51.206;6.888;2023-04-08T08:06:17;101678.91;;;10.69;86.13
10460;BME280;54412;51.206;6.888;2023-04-08T08:08:43;101679.41;;;10.80;86.09
10460;BME280;54412;51.206;6.888;2023-04-08T08:11:09;101673.44;;;10.75;86.90
10460;BME280;54412;51.206;6.888;2023-04-08T08:13:34;101682.13;;;10.79;87.20
10460;BME280;54412;51.206;6.888;2023-04-08T08:16:00;101686.81;;;10.95;86.40
10460;BME280;54412;51.206;6.888;2023-04-08T08:18:26;101694.25;;;10.84;85.81
10460;BME280;54412;51.206;6.888;2023-04-08T08:20:52;101695.63;;;10.70;86.43
10460;BME280;54412;51.206;6.888;2023-04-08T08:23:17;101696.19;;;10.79;85.76
10460;BME280;54412;51.206;6.888;2023-04-08T08:25:43;101699.59;;;10.83;85.24
10460;BME280;54412;51.206;6.888;2023-04-08T08:28:09;101700.28;;;10.88;85.43
10460;BME280;54412;51.206;6.888;2023-04-08T08:30:35;101708.63;;;10.76;85.81
10460;BME280;54412;51.206;6.888;2023-04-08T08:33:01;101709.47;;;10.76;85.38
10460;BME280;54412;51.206;6.888;2023-04-08T08:35:26;101707.28;;;10.89;84.70
10460;BME280;54412;51.206;6.888;2023-04-08T08:37:52;101711.22;;;10.77;85.46
10460;BME280;54412;51.206;6.888;2023-04-08T08:40:18;101701.63;;;10.99;85.54
10460;BME280;54412;51.206;6.888;2023-04-08T08:42:51;101699.16;;;10.95;84.81
10460;BME280;54412;51.206;6.888;2023-04-08T08:45:19;101703.41;;;10.99;85.06
10460;BME280;54412;51.206;6.888;2023-04-08T08:47:45;101704.38;;;11.21;84.09
10460;BME280;54412;51.206;6.888;2023-04-08T08:50:11;101703.03;;;11.34;82.56
10460;BME280;54412;51.206;6.888;2023-04-08T08:52:36;101708.00;;;11.18;83.16
10460;BME280;54412;51.206;6.888;2023-04-08T08:55:02;101710.16;;;11.07;83.86
10460;BME280;54412;51.206;6.888;2023-04-08T08:57:28;101712.09;;;11.27;82.84
10460;BME280;54412;51.206;6.888;2023-04-08T08:59:53;101721.03;;;11.23;83.01
10460;BME280;54412;51.206;6.888;2023-04-08T09:02:29;101711.16;;;11.03;83.03
10460;BME280;54412;51.206;6.888;2023-04-08T09:05:01;101714.19;;;11.17;83.23
10460;BME280;54412;51.206;6.888;2023-04-08T09:07:29;101720.06;;;11.25;82.63
10460;BME280;54412;51.206;6.888;2023-04-08T09:09:58;101716.06;;;11.38;81.76
10460;BME280;54412;51.206;6.888;2023-04-08T09:12:25;101716.88;;;11.16;82.03
10460;BME280;54412;51.206;6.888;2023-04-08T09:15:07;101709.59;;;11.47;81.37
10460;BME280;54412;51.206;6.888;2023-04-08T09:17:38;101721.19;;;11.18;82.31
10460;BME280;54412;51.206;6.888;2023-04-08T09:20:10;101728.47;;;11.36;81.85
10460;BME280;54412;51.206;6.888;2023-04-08T09:22:57;101725.16;;;11.31;82.82
10460;BME280;54412;51.206;6.888;2023-04-08T09:25:29;101729.09;;;11.43;82.10
10460;BME280;54412;51.206;6.888;2023-04-08T09:27:56;101723.06;;;11.39;81.45
10460;BME280;54412;51.206;6.888;2023-04-08T09:30:24;101729.22;;;11.40;80.27
10460;BME280;54412;51.206;6.888;2023-04-08T09:32:54;101725.97;;;11.56;80.82
10460;BME280;54412;51.206;6.888;2023-04-08T09:35:20;101725.09;;;11.56;79.73
10460;BME280;54412;51.206;6.888;2023-04-08T09:37:47;101736.25;;;11.66;80.11
10460;BME280;54412;51.206;6.888;2023-04-08T09:40:14;101744.47;;;11.81;79.62
10460;BME280;54412;51.206;6.888;2023-04-08T09:42:45;101741.22;;;11.96;78.87
10460;BME280;54412;51.206;6.888;2023-04-08T09:45:15;101744.44;;;12.04;78.51
10460;BME280;54412;51.206;6.888;2023-04-08T09:50:44;101744.72;;;11.97;77.54
10460;BME280;54412;51.206;6.888;2023-04-08T09:53:35;101738.69;;;11.93;77.81
10460;BME280;54412;51.206;6.888;2023-04-08T09:56:09;101745.53;;;11.99;76.44
10460;BME280;54412;51.206;6.888;2023-04-08T09:58:56;101743.50;;;12.05;76.43
10460;BME280;54412;51.206;6.888;2023-04-08T10:01:36;101749.41;;;11.90;75.71
10460;BME280;54412;51.206;6.888;2023-04-08T10:04:09;101738.47;;;11.99;76.38
10460;BME280;54412;51.206;6.888;2023-04-08T10:06:38;101736.91;;;12.17;75.51
10460;BME280;54412;51.206;6.888;2023-04-08T10:09:05;101742.38;;;12.12;75.01
10460;BME280;54412;51.206;6.888;2023-04-08T10:11:32;101741.66;;;12.07;75.22
10460;BME280;54412;51.206;6.888;2023-04-08T10:13:59;101742.19;;;12.17;74.30
10460;BME280;54412;51.206;6.888;2023-04-08T10:16:26;101738.22;;;12.05;75.70
10460;BME280;54412;51.206;6.888;2023-04-08T10:18:53;101737.47;;;12.25;74.81
10460;BME280;54412;51.206;6.888;2023-04-08T10:21:40;101742.19;;;12.38;74.50
10460;BME280;54412;51.206;6.888;2023-04-08T10:24:12;101735.03;;;12.84;72.18
10460;BME280;54412;51.206;6.888;2023-04-08T10:26:42;101736.41;;;12.50;71.88
10460;BME280;54412;51.206;6.888;2023-04-08T10:31:48;101745.28;;;12.71;71.20
10460;BME280;54412;51.206;6.888;2023-04-08T10:34:20;101741.97;;;13.28;68.75
10460;BME280;54412;51.206;6.888;2023-04-08T10:36:46;101740.59;;;13.39;68.09
10460;BME280;54412;51.206;6.888;2023-04-08T10:39:14;101743.56;;;13.32;68.81
10460;BME280;54412;51.206;6.888;2023-04-08T10:41:44;101748.72;;;13.35;69.47
10460;BME280;54412;51.206;6.888;2023-04-08T10:44:22;101745.03;;;13.78;68.56
10460;BME280;54412;51.206;6.888;2023-04-08T10:46:50;101744.50;;;14.08;65.12
10460;BME280;54412;51.206;6.888;2023-04-08T10:49:17;101740.13;;;14.44;64.10
10460;BME280;54412;51.206;6.888;2023-04-08T10:51:44;101742.31;;;14.53;62.79
10460;BME280;54412;51.206;6.888;2023-04-08T10:54:16;101738.56;;;15.10;62.08
10460;BME280;54412;51.206;6.888;2023-04-08T10:56:51;101745.19;;;15.36;60.54
10460;BME280;54412;51.206;6.888;2023-04-08T10:59:30;101739.34;;;15.46;58.11
10460;BME280;54412;51.206;6.888;2023-04-08T11:01:59;101742.09;;;15.11;58.54
10460;BME280;54412;51.206;6.888;2023-04-08T11:04:26;101735.88;;;14.76;60.23
10460;BME280;54412;51.206;6.888;2023-04-08T11:06:52;101734.34;;;14.53;60.94
10460;BME280;54412;51.206;6.888;2023-04-08T11:09:18;101731.97;;;14.66;60.61
10460;BME280;54412;51.206;6.888;2023-04-08T11:11:45;101733.59;;;14.51;62.36
10460;BME280;54412;51.206;6.888;2023-04-08T11:14:12;101726.78;;;14.63;62.03
10460;BME280;54412;51.206;6.888;2023-04-08T11:16:38;101726.25;;;14.19;60.63
10460;BME280;54412;51.206;6.888;2023-04-08T11:19:05;101725.41;;;14.19;60.84
10460;BME280;54412;51.206;6.888;2023-04-08T11:21:35;101730.28;;;14.09;59.88
10460;BME280;54412;51.206;6.888;2023-04-08T11:24:08;101722.81;;;13.99;59.45
10460;BME280;54412;51.206;6.888;2023-04-08T11:26:35;101733.78;;;13.91;57.33
10460;BME280;54412;51.206;6.888;2023-04-08T11:29:03;101737.72;;;13.83;58.73
10460;BME280;54412;51.206;6.888;2023-04-08T11:31:29;101734.63;;;13.73;60.01
10460;BME280;54412;51.206;6.888;2023-04-08T11:33:56;101737.28;;;13.73;61.28
10460;BME280;54412;51.206;6.888;2023-04-08T11:36:22;101736.44;;;13.91;58.66
10460;BME280;54412;51.206;6.888;2023-04-08T11:38:48;101746.59;;;13.63;54.95
10460;BME280;54412;51.206;6.888;2023-04-08T11:41:14;101736.19;;;13.38;55.38
10460;BME280;54412;51.206;6.888;2023-04-08T11:43:54;101742.59;;;13.34;55.62
10460;BME280;54412;51.206;6.888;2023-04-08T11:46:21;101740.91;;;13.52;52.92
10460;BME280;54412;51.206;6.888;2023-04-08T11:49:05;101741.00;;;13.30;53.91
10460;BME280;54412;51.206;6.888;2023-04-08T11:51:32;101738.19;;;13.13;55.01
10460;BME280;54412;51.206;6.888;2023-04-08T11:54:05;101738.91;;;13.37;55.46
10460;BME280;54412;51.206;6.888;2023-04-08T11:56:44;101738.53;;;13.46;55.47
10460;BME280;54412;51.206;6.888;2023-04-08T11:59:11;101742.91;;;13.27;56.34
10460;BME280;54412;51.206;6.888;2023-04-08T12:01:36;101742.50;;;13.16;57.05
10460;BME280;54412;51.206;6.888;2023-04-08T12:04:02;101737.03;;;13.20;57.66
10460;BME280;54412;51.206;6.888;2023-04-08T12:06:28;101746.63;;;13.01;58.37
10460;BME280;54412;51.206;6.888;2023-04-08T12:08:55;101737.53;;;13.08;58.61
10460;BME280;54412;51.206;6.888;2023-04-08T12:11:23;101746.44;;;12.86;58.99
10460;BME280;54412;51.206;6.888;2023-04-08T12:13:49;101743.97;;;12.81;58.63
10460;BME280;54412;51.206;6.888;2023-04-08T12:16:15;101744.59;;;12.88;58.92
10460;BME280;54412;51.206;6.888;2023-04-08T12:18:41;101738.94;;;12.75;59.72
10460;BME280;54412;51.206;6.888;2023-04-08T12:21:07;101742.19;;;12.82;58.96
10460;BME280;54412;51.206;6.888;2023-04-08T12:23:32;101736.72;;;12.86;58.72
10460;BME280;54412;51.206;6.888;2023-04-08T12:25:58;101752.16;;;12.97;57.61
10460;BME280;54412;51.206;6.888;2023-04-08T12:28:24;101751.91;;;12.81;57.33
10460;BME280;54412;51.206;6.888;2023-04-08T12:30:49;101757.44;;;12.97;56.93
10460;BME280;54412;51.206;6.888;2023-04-08T12:33:15;101755.78;;;12.94;55.79
10460;BME280;54412;51.206;6.888;2023-04-08T12:35:41;101761.47;;;12.63;57.44
10460;BME280;54412;51.206;6.888;2023-04-08T12:38:08;101760.06;;;12.77;57.14
10460;BME280;54412;51.206;6.888;2023-04-08T12:40:33;101758.44;;;12.73;58.10
10460;BME280;54412;51.206;6.888;2023-04-08T12:42:59;101757.19;;;12.81;58.56
10460;BME280;54412;51.206;6.888;2023-04-08T12:45:24;101767.41;;;12.90;58.06
10460;BME280;54412;51.206;6.888;2023-04-08T12:47:50;101765.75;;;13.09;56.25
10460;BME280;54412;51.206;6.888;2023-04-08T12:50:16;101759.41;;;12.92;56.77
10460;BME280;54412;51.206;6.888;2023-04-08T12:52:42;101762.44;;;12.83;57.63
10460;BME280;54412;51.206;6.888;2023-04-08T12:55:08;101755.72;;;12.74;58.17
10460;BME280;54412;51.206;6.888;2023-04-08T12:57:34;101750.00;;;12.85;58.46
10460;BME280;54412;51.206;6.888;2023-04-08T12:59:59;101749.88;;;12.88;58.60
10460;BME280;54412;51.206;6.888;2023-04-08T13:02:25;101742.75;;;13.10;57.29
10460;BME280;54412;51.206;6.888;2023-04-08T13:04:51;101745.25;;;12.93;57.79